createdAt,value
2022-08-16T00:01:02.085Z,1.20
2022-08-16T00:03:37.734Z,1.38
2022-08-16T00:06:06.209Z,1.42
2022-08-16T00:08:37.319Z,1.40
2022-08-16T00:11:15.593Z,1.60
2022-08-16T00:13:53.699Z,1.50
2022-08-16T00:17:01.302Z,1.48
2022-08-16T00:19:41.689Z,1.40
2022-08-16T00:24:46.764Z,1.30
2022-08-16T00:27:17.390Z,1.33
2022-08-16T00:29:47.099Z,1.40
2022-08-16T00:32:18.110Z,1.58
2022-08-16T00:34:52.477Z,1.60
2022-08-16T00:37:57.200Z,1.13
2022-08-16T00:40:33.446Z,1.30
2022-08-16T00:43:19.119Z,1.38
2022-08-16T00:46:32.975Z,1.30
2022-08-16T00:49:17.298Z,1.80
2022-08-16T00:51:54.836Z,1.40
2022-08-16T00:54:27.891Z,1.63
2022-08-16T00:57:00.154Z,1.38
2022-08-16T00:59:35.625Z,1.50
2022-08-16T01:02:30.896Z,1.48
2022-08-16T01:05:10.402Z,1.50
2022-08-16T01:07:51.193Z,1.60
2022-08-16T01:10:31.564Z,1.50
2022-08-16T01:13:21.388Z,1.60
2022-08-16T01:16:11.307Z,1.27
2022-08-16T01:18:59.613Z,1.67
2022-08-16T01:21:39.896Z,1.42
2022-08-16T01:24:51.835Z,1.70
2022-08-16T01:27:19.934Z,1.45
2022-08-16T01:30:19.685Z,1.80
2022-08-16T01:33:02.137Z,1.58
2022-08-16T01:35:53.399Z,1.52
2022-08-16T01:38:28.247Z,1.63
2022-08-16T01:41:08.731Z,1.73
2022-08-16T01:46:39.338Z,1.58
2022-08-16T01:49:45.776Z,1.50
2022-08-16T01:52:30.204Z,1.60
2022-08-16T01:55:20.957Z,1.55
2022-08-16T01:57:53.573Z,1.67
2022-08-16T02:00:29.218Z,1.60
2022-08-16T02:03:00.053Z,1.48
2022-08-16T02:05:30.751Z,1.90
2022-08-16T02:08:03.509Z,1.75
2022-08-16T02:10:34.132Z,1.83
2022-08-16T02:13:08.544Z,1.90
2022-08-16T02:15:43.816Z,1.90
2022-08-16T02:18:18.601Z,1.80
2022-08-16T02:20:53.522Z,1.95
2022-08-16T02:23:24.214Z,1.75
2022-08-16T02:25:54.693Z,1.90
2022-08-16T02:28:28.008Z,1.77
2022-08-16T02:31:06.576Z,1.80
2022-08-16T02:33:43.852Z,1.92
2022-08-16T02:36:47.449Z,1.83
2022-08-16T02:39:23.134Z,1.88
2022-08-16T02:41:55.714Z,1.90
2022-08-16T02:44:27.064Z,2.35
2022-08-16T02:46:59.745Z,1.80
2022-08-16T02:49:58.533Z,1.98
2022-08-16T02:52:29.488Z,1.92
2022-08-16T02:55:07.165Z,1.92
2022-08-16T02:57:37.447Z,1.90
2022-08-16T03:00:33.838Z,1.67
2022-08-16T03:03:03.417Z,2.00
2022-08-16T03:05:32.719Z,1.90
2022-08-16T03:08:03.090Z,1.85
2022-08-16T03:10:37.001Z,2.00
2022-08-16T03:13:12.384Z,1.75
2022-08-16T03:15:46.673Z,1.80
2022-08-16T03:18:19.092Z,2.10
2022-08-16T03:21:04.017Z,2.20
2022-08-16T03:23:37.119Z,2.03
2022-08-16T03:26:06.234Z,1.95
2022-08-16T03:28:34.679Z,1.75
2022-08-16T03:31:05.337Z,2.15
2022-08-16T03:33:35.378Z,2.20
2022-08-16T03:36:30.918Z,2.00
2022-08-16T03:38:58.751Z,2.00
2022-08-16T03:41:29.450Z,1.90
2022-08-16T03:44:43.635Z,2.13
2022-08-16T03:47:04.835Z,2.30
2022-08-16T03:49:38.520Z,1.90
2022-08-16T03:52:08.273Z,2.30
2022-08-16T03:54:39.205Z,2.03
2022-08-16T03:57:22.571Z,2.50
2022-08-16T03:59:51.081Z,2.35
2022-08-16T04:02:22.382Z,2.40
2022-08-16T04:04:53.919Z,2.05
2022-08-16T04:07:24.729Z,2.50
2022-08-16T04:09:54.141Z,2.40
2022-08-16T04:12:52.211Z,2.20
2022-08-16T04:15:16.954Z,2.30
2022-08-16T04:17:58.241Z,2.53
2022-08-16T04:20:31.190Z,2.95
2022-08-16T04:23:06.195Z,2.80
2022-08-16T04:25:36.846Z,2.88
2022-08-16T04:28:29.714Z,2.30
2022-08-16T04:30:55.419Z,2.47
2022-08-16T04:33:27.237Z,2.15
2022-08-16T04:35:58.537Z,2.53
2022-08-16T04:38:30.603Z,2.53
2022-08-16T04:40:59.970Z,2.35
2022-08-16T04:43:29.401Z,2.30
2022-08-16T04:46:01.110Z,2.17
2022-08-16T04:48:36.337Z,2.10
2022-08-16T04:51:12.721Z,2.13
2022-08-16T04:53:51.911Z,2.25
2022-08-16T04:56:21.357Z,2.83
2022-08-16T04:58:52.320Z,2.45
2022-08-16T05:01:59.035Z,2.60
2022-08-16T05:04:19.277Z,2.47
2022-08-16T05:06:49.070Z,2.70
2022-08-16T05:09:42.792Z,2.85
2022-08-16T05:12:22.186Z,2.38
2022-08-16T05:15:02.765Z,2.65
2022-08-16T05:17:33.398Z,2.55
2022-08-16T05:22:57.922Z,2.20
2022-08-16T05:25:47.813Z,2.58
2022-08-16T05:28:18.974Z,2.60
2022-08-16T05:30:57.671Z,2.70
2022-08-16T05:33:30.041Z,2.33
2022-08-16T05:36:21.048Z,2.55
2022-08-16T05:39:13.781Z,2.75
2022-08-16T05:41:45.988Z,2.60
2022-08-16T05:44:23.160Z,2.70
2022-08-16T05:47:00.141Z,2.70
2022-08-16T05:49:38.628Z,2.70
2022-08-16T05:52:20.905Z,2.80
2022-08-16T05:55:01.108Z,2.70
2022-08-16T05:57:35.523Z,3.00
2022-08-16T06:00:11.625Z,2.83
2022-08-16T06:02:45.214Z,2.55
2022-08-16T06:05:36.064Z,2.40
2022-08-16T06:08:06.444Z,3.03
2022-08-16T06:10:40.756Z,2.70
2022-08-16T06:13:32.726Z,2.65
2022-08-16T06:16:02.105Z,2.95
2022-08-16T06:18:31.141Z,2.70
2022-08-16T06:21:00.819Z,2.75
2022-08-16T06:23:32.285Z,2.78
2022-08-16T06:26:07.743Z,2.50
2022-08-16T06:28:42.187Z,2.50
2022-08-16T06:31:24.916Z,2.70
2022-08-16T06:33:55.329Z,2.72
2022-08-16T06:36:26.746Z,2.70
2022-08-16T06:39:18.315Z,2.60
2022-08-16T06:41:57.017Z,2.60
2022-08-16T06:44:43.526Z,2.58
2022-08-16T06:47:53.270Z,3.15
2022-08-16T06:50:28.606Z,2.60
2022-08-16T06:53:06.837Z,2.83
2022-08-16T06:56:02.621Z,3.00
2022-08-16T06:58:41.894Z,2.88
2022-08-16T07:01:18.323Z,3.20
2022-08-16T07:03:55.775Z,2.88
2022-08-16T07:06:27.399Z,2.88
2022-08-16T07:09:09.753Z,2.80
2022-08-16T07:11:46.200Z,2.97
2022-08-16T07:14:27.357Z,3.03
2022-08-16T07:17:00.688Z,2.83
2022-08-16T07:20:03.107Z,2.70
2022-08-16T07:22:38.178Z,2.45
2022-08-16T07:25:16.999Z,2.67
2022-08-16T07:27:47.107Z,2.65
2022-08-16T07:30:38.168Z,3.17
2022-08-16T07:33:10.735Z,2.78
2022-08-16T07:35:49.498Z,3.83
2022-08-16T07:38:20.260Z,3.70
2022-08-16T07:41:10.098Z,2.70
2022-08-16T07:43:47.580Z,2.60
2022-08-16T07:46:38.972Z,2.70
2022-08-16T07:49:12.941Z,2.78
2022-08-16T07:51:43.035Z,2.78
2022-08-16T07:54:20.698Z,2.78
2022-08-16T07:56:54.439Z,2.70
2022-08-16T07:59:26.904Z,2.80
2022-08-16T08:02:20.181Z,2.65
2022-08-16T08:04:54.215Z,2.88
2022-08-16T08:07:27.602Z,2.78
2022-08-16T08:09:58.626Z,2.60
2022-08-16T08:12:31.274Z,3.13
2022-08-16T08:15:09.704Z,2.90
2022-08-16T08:17:42.623Z,2.70
2022-08-16T08:20:26.524Z,2.80
2022-08-16T08:23:01.608Z,3.00
2022-08-16T08:26:00.148Z,2.85
2022-08-16T08:28:31.981Z,2.97
2022-08-16T08:31:05.174Z,2.60
2022-08-16T08:33:39.973Z,2.90
2022-08-16T08:36:22.034Z,2.45
2022-08-16T08:38:53.555Z,2.55
2022-08-16T08:41:28.385Z,2.40
2022-08-16T08:43:58.627Z,2.90
2022-08-16T08:46:27.473Z,2.97
2022-08-16T08:48:59.275Z,2.78
2022-08-16T08:51:31.967Z,2.55
2022-08-16T08:54:09.740Z,2.83
2022-08-16T08:56:45.730Z,2.60
2022-08-16T08:59:34.155Z,2.50
2022-08-16T09:02:19.527Z,2.72
2022-08-16T09:04:53.938Z,2.60
2022-08-16T09:07:25.386Z,3.10
2022-08-16T09:10:06.241Z,2.63
2022-08-16T09:12:40.766Z,2.90
2022-08-16T09:15:24.047Z,2.75
2022-08-16T09:17:55.809Z,2.80
2022-08-16T09:20:30.396Z,3.15
2022-08-16T09:22:59.939Z,3.00
2022-08-16T09:25:33.810Z,2.95
2022-08-16T09:28:08.901Z,3.20
2022-08-16T09:30:43.401Z,2.78
2022-08-16T09:33:19.989Z,2.80
2022-08-16T09:35:53.013Z,3.10
2022-08-16T09:38:31.902Z,2.33
2022-08-16T09:41:14.424Z,2.78
2022-08-16T09:43:59.178Z,2.92
2022-08-16T09:46:45.814Z,2.70
2022-08-16T09:49:20.203Z,2.67
2022-08-16T09:51:53.768Z,2.88
2022-08-16T09:54:23.964Z,2.90
2022-08-16T09:56:54.314Z,2.80
2022-08-16T09:59:25.508Z,2.58
2022-08-16T10:02:00.601Z,2.90
2022-08-16T10:04:54.375Z,2.63
2022-08-16T10:07:44.341Z,2.50
2022-08-16T10:10:19.180Z,2.70
2022-08-16T10:13:16.651Z,2.58
2022-08-16T10:15:54.994Z,2.70
2022-08-16T10:18:41.281Z,2.50
2022-08-16T10:21:18.023Z,2.10
2022-08-16T10:23:48.656Z,2.30
2022-08-16T10:27:18.899Z,2.15
2022-08-16T10:29:20.103Z,2.47
2022-08-16T10:31:53.166Z,2.03
2022-08-16T10:34:31.636Z,2.08
2022-08-16T10:37:02.205Z,1.95
2022-08-16T10:39:40.608Z,2.00
2022-08-16T10:42:13.516Z,2.17
2022-08-16T10:44:54.569Z,2.42
2022-08-16T10:47:23.326Z,2.47
2022-08-16T10:49:51.997Z,2.40
2022-08-16T10:52:21.417Z,2.47
2022-08-16T10:54:59.195Z,2.60
2022-08-16T10:57:32.807Z,2.67
2022-08-16T11:00:01.505Z,2.60
2022-08-16T11:02:59.224Z,2.10
2022-08-16T11:05:17.782Z,1.98
2022-08-16T11:08:05.432Z,2.00
2022-08-16T11:11:05.432Z,2.03
2022-08-16T11:17:01.972Z,2.28
2022-08-16T11:19:12.484Z,2.22
2022-08-16T11:24:41.852Z,1.73
2022-08-16T11:27:23.031Z,1.90
2022-08-16T11:29:56.989Z,1.50
2022-08-16T11:32:32.248Z,1.98
2022-08-16T11:35:16.117Z,1.80
2022-08-16T11:38:47.604Z,1.42
2022-08-16T11:41:14.486Z,1.40
2022-08-16T11:43:42.620Z,1.30
2022-08-16T11:46:45.160Z,1.40
2022-08-16T11:49:09.897Z,1.85
2022-08-16T11:51:44.321Z,1.58
2022-08-16T11:54:21.241Z,1.50
2022-08-16T11:56:56.590Z,1.13
2022-08-16T11:59:29.525Z,1.25
2022-08-16T12:01:59.762Z,1.20
2022-08-16T12:04:29.235Z,1.52
2022-08-16T12:06:58.965Z,1.40
2022-08-16T12:09:30.287Z,1.20
2022-08-16T12:14:35.261Z,1.20
2022-08-16T12:17:06.553Z,1.33
2022-08-16T12:19:38.048Z,1.20
2022-08-16T12:22:19.740Z,1.25
2022-08-16T12:24:51.149Z,1.30
2022-08-16T12:27:25.190Z,1.20
2022-08-16T12:29:54.554Z,1.30
2022-08-16T12:32:39.375Z,1.10
2022-08-16T12:35:17.100Z,1.35
2022-08-16T12:37:49.900Z,1.42
2022-08-16T12:40:32.621Z,1.50
2022-08-16T12:43:05.197Z,1.23
2022-08-16T12:45:41.699Z,1.35
2022-08-16T12:48:34.461Z,1.45
2022-08-16T12:51:19.459Z,1.30
2022-08-16T12:53:53.631Z,1.38
2022-08-16T12:56:26.886Z,1.20
2022-08-16T12:58:57.696Z,1.50
2022-08-16T13:01:33.415Z,1.27
2022-08-16T13:04:12.367Z,1.45
2022-08-16T13:06:50.202Z,1.25
2022-08-16T13:09:26.761Z,1.60
2022-08-16T13:12:16.339Z,1.55
2022-08-16T13:14:45.747Z,1.50
2022-08-16T13:17:23.599Z,1.50
2022-08-16T13:20:11.251Z,1.58
2022-08-16T13:22:52.100Z,1.48
2022-08-16T13:25:25.449Z,1.33
2022-08-16T13:28:14.651Z,1.33
2022-08-16T13:30:52.495Z,1.30
2022-08-16T13:33:30.567Z,1.30
2022-08-16T13:36:00.985Z,1.17
2022-08-16T13:38:36.955Z,1.30
2022-08-16T13:41:11.470Z,1.20
2022-08-16T13:43:41.898Z,1.20
2022-08-16T13:46:11.093Z,1.60
2022-08-16T13:48:44.764Z,1.30
2022-08-16T13:51:19.287Z,1.20
2022-08-16T13:53:58.334Z,1.60
2022-08-16T13:56:37.445Z,1.45
2022-08-16T13:59:20.223Z,1.40
2022-08-16T14:01:55.367Z,1.30
2022-08-16T14:04:31.247Z,1.13
2022-08-16T14:07:04.143Z,1.40
2022-08-16T14:09:36.883Z,1.30
2022-08-16T14:12:19.668Z,1.30
2022-08-16T14:14:56.385Z,1.33
2022-08-16T14:17:27.793Z,1.20
2022-08-16T14:19:59.596Z,1.20
2022-08-16T14:22:39.711Z,1.30
2022-08-16T14:25:20.022Z,1.30
2022-08-16T14:27:52.477Z,1.23
2022-08-16T14:30:23.791Z,1.35
2022-08-16T14:32:53.323Z,1.10
2022-08-16T14:35:29.308Z,1.13
2022-08-16T14:38:05.862Z,1.05
2022-08-16T14:40:35.686Z,1.25
2022-08-16T14:43:05.573Z,1.25
2022-08-16T14:45:36.856Z,1.05
2022-08-16T14:48:05.854Z,1.15
2022-08-16T14:50:34.190Z,1.25
2022-08-16T14:53:09.468Z,0.93
2022-08-16T14:55:41.121Z,1.10
2022-08-16T14:58:19.351Z,1.35
2022-08-16T15:00:50.283Z,1.20
2022-08-16T15:03:22.407Z,1.25
2022-08-16T15:05:54.013Z,1.20
2022-08-16T15:08:37.176Z,1.35
2022-08-16T15:11:09.610Z,1.15
2022-08-16T15:13:37.549Z,1.20
2022-08-16T15:16:07.660Z,1.25
2022-08-16T15:18:36.517Z,1.25
2022-08-16T15:21:08.419Z,1.20
2022-08-16T15:23:40.511Z,1.20
2022-08-16T15:26:11.107Z,1.30
2022-08-16T15:28:50.038Z,1.20
2022-08-16T15:31:19.516Z,1.10
2022-08-16T15:33:56.617Z,1.30
2022-08-16T15:36:26.904Z,1.10
2022-08-16T15:39:06.833Z,1.63
2022-08-16T15:41:47.031Z,1.43
2022-08-16T15:44:23.767Z,1.40
2022-08-16T15:46:58.740Z,1.25
2022-08-16T15:49:36.969Z,1.30
2022-08-16T15:52:12.768Z,1.30
2022-08-16T15:54:52.493Z,1.30
2022-08-16T15:57:36.996Z,1.30
2022-08-16T16:00:14.912Z,1.88
2022-08-16T16:02:45.192Z,1.40
2022-08-16T16:05:14.209Z,1.25
2022-08-16T16:07:56.950Z,1.50
2022-08-16T16:10:31.390Z,1.25
2022-08-16T16:13:01.858Z,1.98
2022-08-16T16:15:39.227Z,1.42
2022-08-16T16:18:09.842Z,1.33
2022-08-16T16:20:47.492Z,1.40
2022-08-16T16:23:24.709Z,1.48
2022-08-16T16:25:55.212Z,1.30
2022-08-16T16:29:06.347Z,1.55
2022-08-16T16:31:19.014Z,1.25
2022-08-16T16:33:52.695Z,1.35
2022-08-16T16:36:28.730Z,1.38
2022-08-16T16:38:58.443Z,1.52
2022-08-16T16:41:30.405Z,1.25
2022-08-16T16:44:01.203Z,1.60
2022-08-16T16:46:43.249Z,1.55
2022-08-16T16:49:14.646Z,1.50
2022-08-16T16:51:44.917Z,1.50
2022-08-16T16:54:27.753Z,1.30
2022-08-16T16:56:58.476Z,1.40
2022-08-16T16:59:28.065Z,1.30
2022-08-16T17:02:39.303Z,1.63
2022-08-16T17:04:49.186Z,1.63
2022-08-16T17:07:17.737Z,1.50
2022-08-16T17:09:53.824Z,2.10
2022-08-16T17:12:25.172Z,2.05
2022-08-16T17:15:10.681Z,1.70
2022-08-16T17:17:59.843Z,1.80
2022-08-16T17:20:27.613Z,1.75
2022-08-16T17:22:57.074Z,1.60
2022-08-16T17:25:27.438Z,1.70
2022-08-16T17:29:00.081Z,1.80
2022-08-16T17:30:59.560Z,1.67
2022-08-16T17:33:37.318Z,1.58
2022-08-16T17:36:52.686Z,1.67
2022-08-16T17:39:25.259Z,1.65
2022-08-16T17:41:54.167Z,1.88
2022-08-16T17:44:24.644Z,1.70
2022-08-16T17:46:53.541Z,1.58
2022-08-16T17:49:24.261Z,1.90
2022-08-16T17:54:30.645Z,1.58
2022-08-16T17:57:00.844Z,1.77
2022-08-16T17:59:30.534Z,1.65
2022-08-16T18:01:59.549Z,1.80
2022-08-16T18:04:48.358Z,1.65
2022-08-16T18:07:16.382Z,1.90
2022-08-16T18:09:44.501Z,1.70
2022-08-16T18:12:41.622Z,1.90
2022-08-16T18:15:11.506Z,1.67
2022-08-16T18:17:40.337Z,1.90
2022-08-16T18:20:30.534Z,1.65
2022-08-16T18:23:09.032Z,1.80
2022-08-16T18:25:47.346Z,1.77
2022-08-16T18:28:16.490Z,1.70
2022-08-16T18:30:50.932Z,1.90
2022-08-16T18:33:22.417Z,1.70
2022-08-16T18:35:57.435Z,2.20
2022-08-16T18:38:26.799Z,1.90
2022-08-16T18:40:55.745Z,3.15
2022-08-16T18:44:23.247Z,5.20
2022-08-16T18:46:11.961Z,3.85
2022-08-16T18:48:40.220Z,2.80
2022-08-16T18:51:13.041Z,2.00
2022-08-16T18:53:44.439Z,1.85
2022-08-16T18:56:12.833Z,1.90
2022-08-16T18:58:42.001Z,2.13
2022-08-16T19:01:09.913Z,2.17
2022-08-16T19:03:38.876Z,2.00
2022-08-16T19:06:13.535Z,2.00
2022-08-16T19:08:44.609Z,1.90
2022-08-16T19:11:23.501Z,2.10
2022-08-16T19:13:52.582Z,2.35
2022-08-16T19:16:23.162Z,2.60
2022-08-16T19:18:54.289Z,2.58
2022-08-16T19:23:50.824Z,2.33
2022-08-16T19:26:24.544Z,2.45
2022-08-16T19:28:59.089Z,2.15
2022-08-16T19:31:34.255Z,2.40
2022-08-16T19:34:04.489Z,2.08
2022-08-16T19:36:37.975Z,2.22
2022-08-16T19:39:15.207Z,2.00
2022-08-16T19:41:50.575Z,2.28
2022-08-16T19:44:23.619Z,2.40
2022-08-16T19:46:52.273Z,2.40
2022-08-16T19:49:20.630Z,2.10
2022-08-16T19:51:49.389Z,1.90
2022-08-16T19:54:17.821Z,2.05
2022-08-16T19:56:45.706Z,2.30
2022-08-16T19:59:39.720Z,2.33
2022-08-16T20:02:03.041Z,2.17
2022-08-16T20:04:31.684Z,2.05
2022-08-16T20:07:01.890Z,2.10
2022-08-16T20:09:30.596Z,2.13
2022-08-16T20:11:59.252Z,2.30
2022-08-16T20:14:27.586Z,2.20
2022-08-16T20:16:58.573Z,2.58
2022-08-16T20:19:36.091Z,2.30
2022-08-16T20:22:52.547Z,2.67
2022-08-16T20:25:28.718Z,2.30
2022-08-16T20:27:58.060Z,2.40
2022-08-16T20:30:27.335Z,2.28
2022-08-16T20:32:55.548Z,2.33
2022-08-16T20:35:28.286Z,2.10
2022-08-16T20:37:56.806Z,2.35
2022-08-16T20:40:34.639Z,2.38
2022-08-16T20:43:14.533Z,2.67
2022-08-16T20:45:46.686Z,2.63
2022-08-16T20:48:16.050Z,2.50
2022-08-16T20:50:45.261Z,2.88
2022-08-16T20:53:13.443Z,2.70
2022-08-16T20:55:41.807Z,2.50
2022-08-16T20:58:09.972Z,2.58
2022-08-16T21:00:38.470Z,2.40
2022-08-16T21:03:10.754Z,2.45
2022-08-16T21:05:39.259Z,2.38
2022-08-16T21:08:50.431Z,2.28
2022-08-16T21:10:56.870Z,2.40
2022-08-16T21:13:25.761Z,2.60
2022-08-16T21:15:54.617Z,2.90
2022-08-16T21:18:23.758Z,2.50
2022-08-16T21:20:52.524Z,2.78
2022-08-16T21:23:21.477Z,2.40
2022-08-16T21:25:58.955Z,2.55
2022-08-16T21:28:38.796Z,2.53
2022-08-16T21:31:13.085Z,2.75
2022-08-16T21:33:43.264Z,2.60
2022-08-16T21:36:13.183Z,2.72
2022-08-16T21:38:41.547Z,2.67
2022-08-16T21:41:13.372Z,2.80
2022-08-16T21:43:41.933Z,2.70
2022-08-16T21:46:10.752Z,2.60
2022-08-16T21:48:43.657Z,2.85
2022-08-16T21:51:16.348Z,2.53
2022-08-16T21:53:44.598Z,2.67
2022-08-16T21:56:18.640Z,2.67
2022-08-16T21:58:52.804Z,2.70
2022-08-16T22:01:23.694Z,2.85
2022-08-16T22:04:01.479Z,2.58
2022-08-16T22:06:42.833Z,2.88
2022-08-16T22:09:15.333Z,3.08
2022-08-16T22:11:44.873Z,2.75
2022-08-16T22:14:13.535Z,2.85
2022-08-16T22:16:42.226Z,2.92
2022-08-16T22:19:11.547Z,2.63
2022-08-16T22:21:39.466Z,2.70
2022-08-16T22:24:08.238Z,2.65
2022-08-16T22:26:43.312Z,2.78
2022-08-16T22:29:15.223Z,2.75
2022-08-16T22:31:44.287Z,2.92
2022-08-16T22:34:14.441Z,3.05
2022-08-16T22:36:43.954Z,2.80
2022-08-16T22:39:14.145Z,2.78
2022-08-16T22:41:45.706Z,2.90
2022-08-16T22:44:14.626Z,2.90
2022-08-16T22:46:43.222Z,2.95
2022-08-16T22:49:13.005Z,3.10
2022-08-16T22:51:44.236Z,3.13
2022-08-16T22:54:34.207Z,2.83
2022-08-16T22:57:02.508Z,3.15
2022-08-16T22:59:32.041Z,3.20
2022-08-16T23:02:04.551Z,3.13
2022-08-16T23:04:34.099Z,3.28
2022-08-16T23:09:33.735Z,3.30
2022-08-16T23:12:06.131Z,2.90
2022-08-16T23:14:34.436Z,3.70
2022-08-16T23:17:02.542Z,3.28
2022-08-16T23:19:30.861Z,3.25
2022-08-16T23:22:00.721Z,3.20
2022-08-16T23:24:28.928Z,3.38
2022-08-16T23:26:57.265Z,3.72
2022-08-16T23:29:26.547Z,2.92
2022-08-16T23:32:08.433Z,3.28
2022-08-16T23:34:36.711Z,3.15
2022-08-16T23:37:04.674Z,3.25
2022-08-16T23:39:33.112Z,3.00
2022-08-16T23:42:12.084Z,2.97
2022-08-16T23:44:56.519Z,3.25
2022-08-16T23:47:27.653Z,2.97
2022-08-16T23:50:02.540Z,3.25
2022-08-16T23:52:53.917Z,3.05
2022-08-16T23:55:20.491Z,3.38
2022-08-16T23:57:50.236Z,3.25
